ベルファスト国際空港の過去48時間の天気

ベルファスト国際空港 (Belfast / Aldergrove Airport)

現在時刻: 8/6 22:42 BST (8/6 21:42 UTC) 以下の時間は現地時間です。

過去48時間のMETAR気象情報
時間 風向 風速(m/s) 視程 気温(℃) 湿度(%) 気圧(hPa) 天気現象
6 22:20 南東 4 10km以上 16 94 1014
6 21:50 南東 3 10km以上 16 88 1013
6 20:20 南南東 4 10km以上 18 83 1013
6 19:20 南南東 5 10km以上 18 83 1013
6 18:50 南東 5 10km以上 18 83 1013
6 18:20 南南東 4 10km以上 19 78 1012
6 17:50 南南東 5 10km以上 19 78 1012
6 17:20 南南東 5 10km以上 20 78 1012
6 16:50 5 10km以上 19 78 1012
6 15:20 南南東 5 10km以上 18 77 1013
6 14:50 5 10km以上 18 77 1013
6 14:20 南南東 6 10km以上 19 78 1013
6 13:50 南南東 5 10km以上 19 73 1013
6 13:20 南東 6 10km以上 19 78 1013
6 12:20 南東 6 10km以上 19 78 1013
6 11:50 南東 4 10km以上 18 83 1013
6 11:20 南南東 5 10km以上 19 83 1013
6 10:20 南東 4 10km以上 18 83 1013
6 09:50 南東 4 10km以上 18 83 1013
6 09:20 南東 3 10km以上 18 83 1013
6 08:50 東南東 3 10km以上 18 83 1013
6 08:20 2 10km以上 17 88 1013
6 07:50 不定 2 10km以上 16 88 1013
6 07:20 南東 2 10km以上 14 94 1013
6 06:50 南東 2 10km以上 13 94 1012
6 06:20 南東 2 10km以上 12 94 1012
6 05:50 南南東 2 10km以上 11 100 1012
6 05:20 南東 2 10km以上 11 94 1012
6 04:50 南東 2 10km以上 12 94 1012
6 04:20 南東 2 10km以上 12 94 1012
6 03:50 南東 2 10km以上 12 94 1012
6 03:20 南南東 2 10km以上 13 94 1012
6 02:50 南南東 3 10km以上 12 100 1012
6 02:20 2 10km以上 13 94 1012
6 01:50 2 10km以上 13 94 1012
6 01:20 不定 2 10km以上 13 94 1011
6 00:50 不定 2 10km以上 14 94 1011
6 00:20 南南西 2 10km以上 14 94 1011
5 23:50 南南西 2 10km以上 15 88 1011
5 23:20 西南西 3 10km以上 15 88 1010
5 22:50 西南西 3 10km以上 15 88 1010
5 22:20 西南西 3 10km以上 16 88 1009
5 21:50 西 3 10km以上 15 94 1009
5 21:20 西 3 10km以上 16 88 1008
5 20:50 西北西 3 10km以上 17 83 1008
5 20:20 西南西 2 10km以上 18 83 1007
5 19:50 西北西 3 10km以上 17 88 1007
5 19:20 西 4 10km以上 18 83 1006
5 18:50 西 4 10km以上 18 88 1006
5 18:20 西 3 10km以上 17 94 1005
5 17:50 西南西 5 10km以上 17 94 1005
5 17:20 西 4 10km以上 17 94 1004
5 16:50 西北西 2 10km以上 17 100 1004
5 16:20 西北西 4 6000m 17 94 1004 もや
5 15:50 西 4 3800m 17 100 1003 もや
5 15:20 西北西 3 5000m 17 94 1003 もや
5 14:50 西北西 4 4700m 17 94 1003 弱い雨
5 14:20 北西 3 6000m 17 94 1002 弱い雨
5 13:50 北北西 3 4000m 17 94 1002 弱い雨
5 12:50 北東 2 4600m 17 94 1002 霧雨
5 12:20 2 3600m 16 100 1002 弱い雨
5 11:50 西北西 1 6000m 16 100 1002
5 11:20 不定 2 7000m 16 100 1002
5 10:50 不定 2 6000m 16 94 1002 弱い雨
5 10:20 南南東 2 1600m 16 94 1002 もや
5 09:50 南南東 2 2300m 16 94 1002 弱い霧雨
5 08:50 3 10km以上 16 88 1002
5 08:20 3 10km以上 16 88 1002
5 07:50 南南西 3 10km以上 16 88 1002
5 06:50 南南西 3 10km以上 15 94 1002
5 06:20 南南西 3 10km以上 15 94 1002
5 05:50 南西 4 10km以上 15 94 1002
5 05:20 南西 5 10km以上 15 94 1001
5 04:50 南西 5 10km以上 16 88 1001
5 04:20 南西 5 10km以上 16 88 1001
5 03:50 南西 4 10km以上 15 94 1001
5 03:20 南西 5 10km以上 15 94 1001
5 02:50 南西 5 10km以上 16 88 1001
5 02:20 南西 4 10km以上 15 100 1001
5 01:50 西南西 4 10km以上 15 94 1001
5 01:20 南西 5 10km以上 16 88 1001
5 00:50 南西 6 10km以上 16 88 1001
5 00:20 南西 7 10km以上 16 88 1001
4 23:50 南西 7 10km以上 16 94 1001
4 23:20 南西 8 5000m 17 94 1001
4 22:50 南西 7 10km以上 17 94 1000 弱い雨
EGAA 062120Z 14007KT 9999 FEW018 16/15 Q1014
EGAA 062050Z 14006KT CAVOK 16/14 Q1013
EGAA 061920Z 15008KT CAVOK 18/15 Q1013
EGAA 061820Z 15009KT CAVOK 18/15 Q1013
EGAA 061750Z 14009KT 9999 FEW019 SCT034 18/15 Q1013
EGAA 061720Z 15008KT 9999 FEW032 BKN048 19/15 Q1012
EGAA 061650Z 16009KT 9999 FEW019 BKN036 19/15 Q1012
EGAA 061620Z 16010KT 120V180 9999 FEW019 BKN033 20/16 Q1012
EGAA 061550Z 17009KT 130V200 9999 SCT019 SCT025 OVC031 19/15 Q1012
EGAA 061420Z 15010KT 9999 BKN018 BKN028 OVC033 18/14 Q1013
EGAA 061350Z 17010KT 140V200 9999 BKN018 OVC023 18/14 Q1013
EGAA 061320Z 16011KT 9999 BKN023 19/15 Q1013
EGAA 061250Z 16010G20KT 9999 FEW018 BKN024 OVC030 19/14 Q1013
EGAA 061220Z 14012KT 9999 SCT020 OVC026 19/15 Q1013
EGAA 061120Z 14011KT 110V180 9999 BKN019 BKN025 19/15 Q1013
EGAA 061050Z 14008KT 9999 BKN023 18/15 Q1013
EGAA 061020Z 15010KT 9999 BKN020 19/16 Q1013
EGAA 060920Z 13007KT 100V170 9999 BKN014 18/15 Q1013
EGAA 060850Z 13007KT CAVOK 18/15 Q1013
EGAA 060820Z 13006KT 100V180 CAVOK 18/15 Q1013
EGAA 060750Z 11006KT CAVOK 18/15 Q1013
EGAA 060720Z 10004KT 060V120 CAVOK 17/15 Q1013
EGAA 060650Z VRB03KT CAVOK 16/14 Q1013
EGAA 060620Z 13004KT CAVOK 14/13 Q1013
EGAA 060550Z 13004KT 9999 FEW022 13/12 Q1012
EGAA 060520Z 13003KT 9999 FEW025 12/11 Q1012
EGAA 060450Z 15004KT 9999 FEW010 11/11 Q1012
EGAA 060420Z 14004KT 9999 FEW030 11/10 Q1012
EGAA 060350Z 14004KT CAVOK 12/11 Q1012
EGAA 060320Z 14003KT CAVOK 12/11 Q1012
EGAA 060250Z 13004KT CAVOK 12/11 Q1012
EGAA 060220Z 16004KT CAVOK 13/12 Q1012
EGAA 060150Z 15005KT CAVOK 12/12 Q1012
EGAA 060120Z 17003KT CAVOK 13/12 Q1012
EGAA 060050Z 18004KT CAVOK 13/12 Q1012
EGAA 060020Z VRB03KT CAVOK 13/12 Q1011
EGAA 052350Z VRB03KT 9999 BKN030 14/13 Q1011
EGAA 052320Z 20004KT 9999 BKN029 14/13 Q1011
EGAA 052250Z 21004KT 9999 BKN029 15/13 Q1011
EGAA 052220Z 24005KT 9999 BKN029 15/13 Q1010
EGAA 052150Z 25005KT 9999 FEW026 BKN037 15/13 Q1010
EGAA 052120Z 24005KT 9999 BKN026 16/14 Q1009
EGAA 052050Z 26006KT 9999 BKN036 15/14 Q1009
EGAA 052020Z 27006KT 9999 BKN036 16/14 Q1008
EGAA 051950Z 29005KT 9999 FEW024 SCT033 17/14 Q1008
EGAA 051920Z 25004KT 9999 FEW026 SCT032 18/15 Q1007
EGAA 051850Z 29005KT 9999 FEW023 17/15 Q1007
EGAA 051820Z 27007KT 9999 FEW020 BKN030 18/15 Q1006
EGAA 051750Z 28008KT 9999 BKN028 18/16 Q1006
EGAA 051720Z 28006KT 9999 FEW018 BKN024 17/16 Q1005
EGAA 051650Z 25009KT 9999 SCT013 BKN018 17/16 Q1005
EGAA 051620Z 26007KT 9999 FEW007 BKN022 OVC028 17/16 Q1004
EGAA 051550Z 29004KT 9999 SCT003 BKN007 OVC022 17/17 Q1004
EGAA 051520Z 30007KT 6000 BR BKN002 BKN006 OVC016 17/16 Q1004
EGAA 051450Z 28007KT 3800 BR BKN003 BKN007 OVC015 17/17 Q1003
EGAA 051420Z 29006KT 5000 BR BKN002 BKN005 OVC018 17/16 Q1003
EGAA 051350Z 29007KT 4700 -RA SCT001 OVC019 17/16 Q1003 RERA
EGAA 051320Z 31005KT 6000 -RA FEW001 SCT005 BKN014 17/16 Q1002 RERA
EGAA 051250Z 33005KT 300V030 4000 -RA BKN002 BKN005 OVC009 17/16 Q1002 RERA
EGAA 051150Z 04004KT 4600 DZ BKN002 OVC019 17/16 Q1002 RERA
EGAA 051120Z 35003KT 3600 -RA SCT002 SCT007 BKN010 16/16 Q1002 RERA
EGAA 051050Z 29002KT 6000 RA BKN004 OVC026 16/16 Q1002 RERA
EGAA 051020Z VRB03KT 7000 RA SCT003 BKN008 BKN013 16/16 Q1002 RERA
EGAA 050950Z VRB03KT 6000 -RA FEW004 BKN014 BKN018 16/15 Q1002 RERA
EGAA 050920Z 15004KT 110V190 1600 BR BKN002 OVC009 16/15 Q1002 REDZ
EGAA 050850Z 15004KT 2300 -DZ SCT003 SCT006 BKN010 16/15 Q1002 REDZ
EGAA 050750Z 18005KT 9999 FEW005 SCT009 OVC014 16/14 Q1002
EGAA 050720Z 17005KT 130V210 9999 BKN016 OVC022 16/14 Q1002
EGAA 050650Z 21005KT 170V240 9999 BKN021 OVC032 16/14 Q1002
EGAA 050550Z 21005KT 9999 FEW031 SCT037 15/14 Q1002
EGAA 050520Z 21006KT 9999 BKN032 15/14 Q1002
EGAA 050450Z 22007KT 9999 BKN032 15/14 Q1002
EGAA 050420Z 22010KT 9999 SCT027 BKN039 15/14 Q1001
EGAA 050350Z 22009KT 9999 SCT026 16/14 Q1001
EGAA 050320Z AUTO 22009KT 9999 BKN024/// OVC031/// 16/14 Q1001
EGAA 050250Z AUTO 23008KT 9999 BKN027/// BKN033/// OVC038/// 15/14 Q1001
EGAA 050220Z AUTO 23010KT 9999 FEW012/// BKN029/// BKN035/// 15/14 Q1001
EGAA 050150Z 23010KT 9999 SCT015 BKN022 16/14 Q1001
EGAA 050120Z 22008KT 9999 BKN016 15/15 Q1001
EGAA 050050Z 24008KT 9999 BKN014 15/14 Q1001
EGAA 050020Z 23009KT 9999 BKN014 16/14 Q1001
EGAA 042350Z 23012KT 9999 BKN020 16/14 Q1001
EGAA 042320Z 22013KT 9999 BKN024 16/14 Q1001
EGAA 042250Z 23014KT 9999 FEW010 SCT020 BKN026 16/15 Q1001
EGAA 042220Z 23015KT 5000 RA FEW008 BKN012 OVC025 17/16 Q1001 REDZ
EGAA 042150Z 22014KT 9999 -RA SCT009 BKN014 OVC018 17/16 Q1000